sensor_id;sensor_type;location;lat;lon;timestamp;temperature;humidity
67141;DHT22;54058;52.010;5.546;2024-02-26T00:01:28;6.30;99.90
67141;DHT22;54058;52.010;5.546;2024-02-26T00:03:56;6.30;99.90
67141;DHT22;54058;52.010;5.546;2024-02-26T00:06:24;6.30;99.90
67141;DHT22;54058;52.010;5.546;2024-02-26T00:08:50;6.40;99.90
67141;DHT22;54058;52.010;5.546;2024-02-26T00:11:16;6.30;99.90
67141;DHT22;54058;52.010;5.546;2024-02-26T00:13:42;6.30;99.90
67141;DHT22;54058;52.010;5.546;2024-02-26T00:16:07;6.30;99.90
67141;DHT22;54058;52.010;5.546;2024-02-26T00:18:33;6.30;99.90
67141;DHT22;54058;52.010;5.546;2024-02-26T00:20:58;6.30;99.90
67141;DHT22;54058;52.010;5.546;2024-02-26T00:23:24;6.30;99.90
67141;DHT22;54058;52.010;5.546;2024-02-26T00:25:49;6.20;99.90
67141;DHT22;54058;52.010;5.546;2024-02-26T00:28:15;6.20;99.90
67141;DHT22;54058;52.010;5.546;2024-02-26T00:30:41;6.20;99.90
67141;DHT22;54058;52.010;5.546;2024-02-26T00:33:06;6.20;99.90
67141;DHT22;54058;52.010;5.546;2024-02-26T00:35:31;6.20;99.90
67141;DHT22;54058;52.010;5.546;2024-02-26T00:37:57;6.20;99.90
67141;DHT22;54058;52.010;5.546;2024-02-26T00:40:24;6.20;99.90
67141;DHT22;54058;52.010;5.546;2024-02-26T00:42:49;6.10;99.90
67141;DHT22;54058;52.010;5.546;2024-02-26T00:45:15;6.20;99.90
67141;DHT22;54058;52.010;5.546;2024-02-26T00:47:42;6.20;99.90
67141;DHT22;54058;52.010;5.546;2024-02-26T00:50:08;6.10;99.90
67141;DHT22;54058;52.010;5.546;2024-02-26T00:52:34;6.10;99.90
67141;DHT22;54058;52.010;5.546;2024-02-26T00:54:59;6.20;99.90
67141;DHT22;54058;52.010;5.546;2024-02-26T00:57:25;6.20;99.90
67141;DHT22;54058;52.010;5.546;2024-02-26T00:59:50;6.20;99.90
67141;DHT22;54058;52.010;5.546;2024-02-26T01:02:19;6.20;99.90
67141;DHT22;54058;52.010;5.546;2024-02-26T01:04:45;6.20;99.90
67141;DHT22;54058;52.010;5.546;2024-02-26T01:07:10;6.20;99.90
67141;DHT22;54058;52.010;5.546;2024-02-26T01:09:36;6.20;99.90
67141;DHT22;54058;52.010;5.546;2024-02-26T01:12:01;6.20;99.90
67141;DHT22;54058;52.010;5.546;2024-02-26T01:14:28;6.20;99.90
67141;DHT22;54058;52.010;5.546;2024-02-26T01:16:53;6.20;99.90
67141;DHT22;54058;52.010;5.546;2024-02-26T01:19:19;6.20;99.90
67141;DHT22;54058;52.010;5.546;2024-02-26T01:21:44;6.20;99.90
67141;DHT22;54058;52.010;5.546;2024-02-26T01:24:10;6.10;99.90
67141;DHT22;54058;52.010;5.546;2024-02-26T01:26:36;6.10;99.90
67141;DHT22;54058;52.010;5.546;2024-02-26T01:29:01;6.10;99.90
67141;DHT22;54058;52.010;5.546;2024-02-26T01:31:27;6.10;99.90
67141;DHT22;54058;52.010;5.546;2024-02-26T01:33:52;6.10;99.90
67141;DHT22;54058;52.010;5.546;2024-02-26T01:36:18;6.10;99.90
67141;DHT22;54058;52.010;5.546;2024-02-26T01:38:43;6.00;99.90
67141;DHT22;54058;52.010;5.546;2024-02-26T01:41:09;6.00;99.90
67141;DHT22;54058;52.010;5.546;2024-02-26T01:43:34;6.10;99.90
67141;DHT22;54058;52.010;5.546;2024-02-26T01:46:00;6.10;99.90
67141;DHT22;54058;52.010;5.546;2024-02-26T01:48:25;6.10;99.90
67141;DHT22;54058;52.010;5.546;2024-02-26T01:50:51;6.10;99.90
67141;DHT22;54058;52.010;5.546;2024-02-26T01:53:17;6.10;99.90
67141;DHT22;54058;52.010;5.546;2024-02-26T01:55:44;6.10;99.90
67141;DHT22;54058;52.010;5.546;2024-02-26T01:58:10;6.10;99.90
67141;DHT22;54058;52.010;5.546;2024-02-26T02:00:36;6.10;99.90
67141;DHT22;54058;52.010;5.546;2024-02-26T02:03:02;6.10;99.90
67141;DHT22;54058;52.010;5.546;2024-02-26T02:05:28;6.10;99.90
67141;DHT22;54058;52.010;5.546;2024-02-26T02:07:54;6.10;99.90
67141;DHT22;54058;52.010;5.546;2024-02-26T02:10:20;6.10;99.90
67141;DHT22;54058;52.010;5.546;2024-02-26T02:12:50;6.10;99.90
67141;DHT22;54058;52.010;5.546;2024-02-26T02:15:16;6.10;99.90
67141;DHT22;54058;52.010;5.546;2024-02-26T02:17:42;6.10;99.90
67141;DHT22;54058;52.010;5.546;2024-02-26T02:20:08;6.10;99.90
67141;DHT22;54058;52.010;5.546;2024-02-26T02:22:34;6.10;99.90
67141;DHT22;54058;52.010;5.546;2024-02-26T02:25:00;6.10;99.90
67141;DHT22;54058;52.010;5.546;2024-02-26T02:27:25;6.20;99.90
67141;DHT22;54058;52.010;5.546;2024-02-26T02:29:51;6.20;99.90
67141;DHT22;54058;52.010;5.546;2024-02-26T02:32:17;6.30;99.90
67141;DHT22;54058;52.010;5.546;2024-02-26T02:34:43;6.30;99.90
67141;DHT22;54058;52.010;5.546;2024-02-26T02:37:09;6.30;99.90
67141;DHT22;54058;52.010;5.546;2024-02-26T02:39:34;6.40;99.90
67141;DHT22;54058;52.010;5.546;2024-02-26T02:42:00;6.40;99.90
67141;DHT22;54058;52.010;5.546;2024-02-26T02:44:25;6.30;99.90
67141;DHT22;54058;52.010;5.546;2024-02-26T02:46:51;6.30;99.90
67141;DHT22;54058;52.010;5.546;2024-02-26T02:49:18;6.20;99.90
67141;DHT22;54058;52.010;5.546;2024-02-26T02:51:44;6.20;99.90
67141;DHT22;54058;52.010;5.546;2024-02-26T02:54:09;6.20;99.90
67141;DHT22;54058;52.010;5.546;2024-02-26T02:56:35;6.20;99.90
67141;DHT22;54058;52.010;5.546;2024-02-26T02:59:01;6.20;99.90
67141;DHT22;54058;52.010;5.546;2024-02-26T03:01:27;6.10;99.90
67141;DHT22;54058;52.010;5.546;2024-02-26T03:03:52;6.10;99.90
67141;DHT22;54058;52.010;5.546;2024-02-26T03:06:18;6.10;99.90
67141;DHT22;54058;52.010;5.546;2024-02-26T03:08:43;6.20;99.90
67141;DHT22;54058;52.010;5.546;2024-02-26T03:11:13;6.10;99.90
67141;DHT22;54058;52.010;5.546;2024-02-26T03:13:40;6.10;99.90
67141;DHT22;54058;52.010;5.546;2024-02-26T03:16:06;6.10;99.90
67141;DHT22;54058;52.010;5.546;2024-02-26T03:18:31;6.10;99.90
67141;DHT22;54058;52.010;5.546;2024-02-26T03:20:57;6.10;99.90
67141;DHT22;54058;52.010;5.546;2024-02-26T03:23:22;6.10;99.90
67141;DHT22;54058;52.010;5.546;2024-02-26T03:25:48;6.10;99.90
67141;DHT22;54058;52.010;5.546;2024-02-26T03:28:14;6.10;99.90
67141;DHT22;54058;52.010;5.546;2024-02-26T03:30:39;6.10;99.90
67141;DHT22;54058;52.010;5.546;2024-02-26T03:33:04;6.10;99.90
67141;DHT22;54058;52.010;5.546;2024-02-26T03:35:30;6.10;99.90
67141;DHT22;54058;52.010;5.546;2024-02-26T03:37:55;6.10;99.90
67141;DHT22;54058;52.010;5.546;2024-02-26T03:40:21;6.10;99.90
67141;DHT22;54058;52.010;5.546;2024-02-26T03:42:46;6.20;99.90
67141;DHT22;54058;52.010;5.546;2024-02-26T03:45:12;6.10;99.90
67141;DHT22;54058;52.010;5.546;2024-02-26T03:47:38;6.10;99.90
67141;DHT22;54058;52.010;5.546;2024-02-26T03:50:06;6.10;99.90
67141;DHT22;54058;52.010;5.546;2024-02-26T03:52:32;6.10;99.90
67141;DHT22;54058;52.010;5.546;2024-02-26T03:54:58;6.20;99.90
67141;DHT22;54058;52.010;5.546;2024-02-26T03:57:24;6.10;99.90
67141;DHT22;54058;52.010;5.546;2024-02-26T03:59:49;6.10;99.90
67141;DHT22;54058;52.010;5.546;2024-02-26T04:02:15;6.10;99.90
67141;DHT22;54058;52.010;5.546;2024-02-26T04:04:45;6.10;99.90
67141;DHT22;54058;52.010;5.546;2024-02-26T04:07:11;6.00;99.90
67141;DHT22;54058;52.010;5.546;2024-02-26T04:09:37;6.00;99.90
67141;DHT22;54058;52.010;5.546;2024-02-26T04:12:02;6.00;99.90
67141;DHT22;54058;52.010;5.546;2024-02-26T04:14:28;6.00;99.90
67141;DHT22;54058;52.010;5.546;2024-02-26T04:16:54;6.00;99.90
67141;DHT22;54058;52.010;5.546;2024-02-26T04:19:20;6.00;99.90
67141;DHT22;54058;52.010;5.546;2024-02-26T04:21:45;6.00;99.90
67141;DHT22;54058;52.010;5.546;2024-02-26T04:24:11;6.00;99.90
67141;DHT22;54058;52.010;5.546;2024-02-26T04:26:36;6.00;99.90
67141;DHT22;54058;52.010;5.546;2024-02-26T04:29:02;5.90;99.90
67141;DHT22;54058;52.010;5.546;2024-02-26T04:31:27;6.00;99.90
67141;DHT22;54058;52.010;5.546;2024-02-26T04:33:54;5.90;99.90
67141;DHT22;54058;52.010;5.546;2024-02-26T04:36:19;5.90;99.90
67141;DHT22;54058;52.010;5.546;2024-02-26T04:38:45;5.90;99.90
67141;DHT22;54058;52.010;5.546;2024-02-26T04:41:11;5.80;99.90
67141;DHT22;54058;52.010;5.546;2024-02-26T04:43:37;5.80;99.90
67141;DHT22;54058;52.010;5.546;2024-02-26T04:46:09;5.80;99.90
67141;DHT22;54058;52.010;5.546;2024-02-26T04:48:38;5.80;99.90
67141;DHT22;54058;52.010;5.546;2024-02-26T04:51:04;5.80;99.90
67141;DHT22;54058;52.010;5.546;2024-02-26T04:53:29;5.80;99.90
67141;DHT22;54058;52.010;5.546;2024-02-26T04:55:55;5.70;99.90
67141;DHT22;54058;52.010;5.546;2024-02-26T04:58:21;5.70;99.90
67141;DHT22;54058;52.010;5.546;2024-02-26T05:00:46;5.70;99.90
67141;DHT22;54058;52.010;5.546;2024-02-26T05:03:12;5.70;99.90
67141;DHT22;54058;52.010;5.546;2024-02-26T05:05:39;5.70;99.90
67141;DHT22;54058;52.010;5.546;2024-02-26T05:08:05;5.80;99.90
67141;DHT22;54058;52.010;5.546;2024-02-26T05:10:30;5.80;99.90
67141;DHT22;54058;52.010;5.546;2024-02-26T05:12:56;5.80;99.90
67141;DHT22;54058;52.010;5.546;2024-02-26T05:15:21;5.80;99.90
67141;DHT22;54058;52.010;5.546;2024-02-26T05:17:47;5.80;99.90
67141;DHT22;54058;52.010;5.546;2024-02-26T05:20:12;5.80;99.90
67141;DHT22;54058;52.010;5.546;2024-02-26T05:22:38;5.80;99.90
67141;DHT22;54058;52.010;5.546;2024-02-26T05:25:04;5.80;99.90
67141;DHT22;54058;52.010;5.546;2024-02-26T05:27:30;5.80;99.90
67141;DHT22;54058;52.010;5.546;2024-02-26T05:29:55;5.80;99.90
67141;DHT22;54058;52.010;5.546;2024-02-26T05:32:21;5.80;99.90
67141;DHT22;54058;52.010;5.546;2024-02-26T05:34:47;5.80;99.90
67141;DHT22;54058;52.010;5.546;2024-02-26T05:37:12;5.80;99.90
67141;DHT22;54058;52.010;5.546;2024-02-26T05:39:38;5.80;99.90
67141;DHT22;54058;52.010;5.546;2024-02-26T05:42:04;5.80;99.90
67141;DHT22;54058;52.010;5.546;2024-02-26T05:44:29;5.80;99.90
67141;DHT22;54058;52.010;5.546;2024-02-26T05:46:55;5.90;99.90
67141;DHT22;54058;52.010;5.546;2024-02-26T05:49:21;5.90;99.90
67141;DHT22;54058;52.010;5.546;2024-02-26T05:51:47;5.90;99.90
67141;DHT22;54058;52.010;5.546;2024-02-26T05:54:13;5.90;99.90
67141;DHT22;54058;52.010;5.546;2024-02-26T05:56:39;5.90;99.90
67141;DHT22;54058;52.010;5.546;2024-02-26T05:59:05;5.90;99.90
67141;DHT22;54058;52.010;5.546;2024-02-26T06:01:30;5.90;99.90
67141;DHT22;54058;52.010;5.546;2024-02-26T06:03:56;5.90;99.90
67141;DHT22;54058;52.010;5.546;2024-02-26T06:06:22;6.00;99.90
67141;DHT22;54058;52.010;5.546;2024-02-26T06:08:48;6.00;99.90
67141;DHT22;54058;52.010;5.546;2024-02-26T06:11:14;6.00;99.90
67141;DHT22;54058;52.010;5.546;2024-02-26T06:13:40;6.00;99.90
67141;DHT22;54058;52.010;5.546;2024-02-26T06:16:05;6.00;99.90
67141;DHT22;54058;52.010;5.546;2024-02-26T06:18:31;6.00;99.90
67141;DHT22;54058;52.010;5.546;2024-02-26T06:20:56;6.00;99.90
67141;DHT22;54058;52.010;5.546;2024-02-26T06:23:22;6.00;99.90
67141;DHT22;54058;52.010;5.546;2024-02-26T06:25:48;6.00;99.90
67141;DHT22;54058;52.010;5.546;2024-02-26T06:28:13;6.00;99.90
67141;DHT22;54058;52.010;5.546;2024-02-26T06:30:39;5.90;99.90
67141;DHT22;54058;52.010;5.546;2024-02-26T06:33:04;5.90;99.90
67141;DHT22;54058;52.010;5.546;2024-02-26T06:35:30;6.00;99.90
67141;DHT22;54058;52.010;5.546;2024-02-26T06:37:55;6.00;99.90
67141;DHT22;54058;52.010;5.546;2024-02-26T06:40:21;6.00;99.90
67141;DHT22;54058;52.010;5.546;2024-02-26T06:42:47;6.00;99.90
67141;DHT22;54058;52.010;5.546;2024-02-26T06:45:12;6.00;99.90
67141;DHT22;54058;52.010;5.546;2024-02-26T06:47:38;6.00;99.90
67141;DHT22;54058;52.010;5.546;2024-02-26T06:50:03;6.00;99.90
67141;DHT22;54058;52.010;5.546;2024-02-26T06:52:29;6.00;99.90
67141;DHT22;54058;52.010;5.546;2024-02-26T06:54:54;6.00;99.90
67141;DHT22;54058;52.010;5.546;2024-02-26T06:57:20;6.00;99.90
67141;DHT22;54058;52.010;5.546;2024-02-26T06:59:46;6.00;99.90
67141;DHT22;54058;52.010;5.546;2024-02-26T07:02:12;5.90;99.90
67141;DHT22;54058;52.010;5.546;2024-02-26T07:04:38;6.00;99.90
67141;DHT22;54058;52.010;5.546;2024-02-26T07:07:04;6.00;99.90
67141;DHT22;54058;52.010;5.546;2024-02-26T07:09:30;6.00;99.90
67141;DHT22;54058;52.010;5.546;2024-02-26T07:11:55;5.90;99.90
67141;DHT22;54058;52.010;5.546;2024-02-26T07:14:21;6.00;99.90
67141;DHT22;54058;52.010;5.546;2024-02-26T07:16:46;6.00;99.90
67141;DHT22;54058;52.010;5.546;2024-02-26T07:19:11;5.90;99.90
67141;DHT22;54058;52.010;5.546;2024-02-26T07:21:37;5.90;99.90
67141;DHT22;54058;52.010;5.546;2024-02-26T07:24:04;5.90;99.90
67141;DHT22;54058;52.010;5.546;2024-02-26T07:26:30;5.90;99.90
67141;DHT22;54058;52.010;5.546;2024-02-26T07:28:56;5.90;99.90
67141;DHT22;54058;52.010;5.546;2024-02-26T07:31:21;5.90;99.90
67141;DHT22;54058;52.010;5.546;2024-02-26T07:33:47;5.90;99.90
67141;DHT22;54058;52.010;5.546;2024-02-26T07:36:12;5.90;99.90
67141;DHT22;54058;52.010;5.546;2024-02-26T07:38:38;5.90;99.90
67141;DHT22;54058;52.010;5.546;2024-02-26T07:41:04;5.90;99.90
67141;DHT22;54058;52.010;5.546;2024-02-26T07:43:30;5.90;99.90
67141;DHT22;54058;52.010;5.546;2024-02-26T07:45:55;5.90;99.90
67141;DHT22;54058;52.010;5.546;2024-02-26T07:48:21;5.90;99.90
67141;DHT22;54058;52.010;5.546;2024-02-26T07:50:46;5.90;99.90
67141;DHT22;54058;52.010;5.546;2024-02-26T07:53:12;6.00;99.90
67141;DHT22;54058;52.010;5.546;2024-02-26T07:55:38;6.00;99.90
67141;DHT22;54058;52.010;5.546;2024-02-26T07:58:03;6.00;99.90
67141;DHT22;54058;52.010;5.546;2024-02-26T08:00:29;5.90;99.90
67141;DHT22;54058;52.010;5.546;2024-02-26T08:02:54;5.90;99.90
67141;DHT22;54058;52.010;5.546;2024-02-26T08:05:20;5.90;99.90
67141;DHT22;54058;52.010;5.546;2024-02-26T08:07:45;5.90;99.90
67141;DHT22;54058;52.010;5.546;2024-02-26T08:10:11;5.90;99.90
67141;DHT22;54058;52.010;5.546;2024-02-26T08:12:36;5.90;99.90
67141;DHT22;54058;52.010;5.546;2024-02-26T08:15:02;5.80;99.90
67141;DHT22;54058;52.010;5.546;2024-02-26T08:17:28;5.80;99.90
67141;DHT22;54058;52.010;5.546;2024-02-26T08:19:53;5.80;99.90
67141;DHT22;54058;52.010;5.546;2024-02-26T08:22:19;5.80;99.90
67141;DHT22;54058;52.010;5.546;2024-02-26T08:24:45;5.80;99.90
67141;DHT22;54058;52.010;5.546;2024-02-26T08:27:10;5.80;99.90
67141;DHT22;54058;52.010;5.546;2024-02-26T08:29:36;5.80;99.90
67141;DHT22;54058;52.010;5.546;2024-02-26T08:32:01;5.80;99.90
67141;DHT22;54058;52.010;5.546;2024-02-26T08:34:27;5.90;99.90
67141;DHT22;54058;52.010;5.546;2024-02-26T08:36:52;5.80;99.90
67141;DHT22;54058;52.010;5.546;2024-02-26T08:39:18;5.90;99.90
67141;DHT22;54058;52.010;5.546;2024-02-26T08:41:44;5.90;99.90
67141;DHT22;54058;52.010;5.546;2024-02-26T08:44:10;5.90;99.90
67141;DHT22;54058;52.010;5.546;2024-02-26T08:46:35;5.90;99.90
67141;DHT22;54058;52.010;5.546;2024-02-26T08:49:01;5.90;99.90
67141;DHT22;54058;52.010;5.546;2024-02-26T08:51:26;5.90;99.90
67141;DHT22;54058;52.010;5.546;2024-02-26T08:53:51;5.90;99.90
67141;DHT22;54058;52.010;5.546;2024-02-26T08:56:19;5.90;99.90
67141;DHT22;54058;52.010;5.546;2024-02-26T08:58:46;5.90;99.90
67141;DHT22;54058;52.010;5.546;2024-02-26T09:01:14;5.90;99.90
67141;DHT22;54058;52.010;5.546;2024-02-26T09:03:39;5.90;99.90
67141;DHT22;54058;52.010;5.546;2024-02-26T09:06:05;5.90;99.90
67141;DHT22;54058;52.010;5.546;2024-02-26T09:08:32;5.90;99.90
67141;DHT22;54058;52.010;5.546;2024-02-26T09:10:57;5.90;99.90
67141;DHT22;54058;52.010;5.546;2024-02-26T09:13:23;5.90;99.90
67141;DHT22;54058;52.010;5.546;2024-02-26T09:15:48;5.90;99.90
67141;DHT22;54058;52.010;5.546;2024-02-26T09:18:14;6.00;99.90
67141;DHT22;54058;52.010;5.546;2024-02-26T09:20:40;5.90;99.90
67141;DHT22;54058;52.010;5.546;2024-02-26T09:23:06;5.90;99.90
67141;DHT22;54058;52.010;5.546;2024-02-26T09:25:31;5.90;99.90
67141;DHT22;54058;52.010;5.546;2024-02-26T09:27:59;5.90;99.90
67141;DHT22;54058;52.010;5.546;2024-02-26T09:30:24;5.90;99.90
67141;DHT22;54058;52.010;5.546;2024-02-26T09:32:50;5.90;99.90
67141;DHT22;54058;52.010;5.546;2024-02-26T09:35:15;5.90;99.90
67141;DHT22;54058;52.010;5.546;2024-02-26T09:37:41;5.90;99.90
67141;DHT22;54058;52.010;5.546;2024-02-26T09:40:09;6.00;99.90
67141;DHT22;54058;52.010;5.546;2024-02-26T09:42:37;5.90;99.90
67141;DHT22;54058;52.010;5.546;2024-02-26T09:45:04;5.90;99.90
67141;DHT22;54058;52.010;5.546;2024-02-26T09:47:33;5.90;99.90
67141;DHT22;54058;52.010;5.546;2024-02-26T09:50:00;5.90;99.90
67141;DHT22;54058;52.010;5.546;2024-02-26T09:52:28;6.00;99.90
67141;DHT22;54058;52.010;5.546;2024-02-26T09:54:54;6.00;99.90
67141;DHT22;54058;52.010;5.546;2024-02-26T09:57:19;6.00;99.90
67141;DHT22;54058;52.010;5.546;2024-02-26T09:59:50;6.00;99.90
67141;DHT22;54058;52.010;5.546;2024-02-26T10:02:16;6.00;99.90
67141;DHT22;54058;52.010;5.546;2024-02-26T10:04:44;6.00;99.90
67141;DHT22;54058;52.010;5.546;2024-02-26T10:07:12;6.00;99.90
67141;DHT22;54058;52.010;5.546;2024-02-26T10:09:37;6.00;99.90
67141;DHT22;54058;52.010;5.546;2024-02-26T10:12:07;6.00;99.90
67141;DHT22;54058;52.010;5.546;2024-02-26T10:14:34;6.00;99.90
67141;DHT22;54058;52.010;5.546;2024-02-26T10:16:59;6.00;99.90
67141;DHT22;54058;52.010;5.546;2024-02-26T10:19:28;6.00;99.90
67141;DHT22;54058;52.010;5.546;2024-02-26T10:21:57;5.90;99.90
67141;DHT22;54058;52.010;5.546;2024-02-26T10:24:23;5.90;99.90
67141;DHT22;54058;52.010;5.546;2024-02-26T10:26:49;6.00;99.90
67141;DHT22;54058;52.010;5.546;2024-02-26T10:29:14;6.00;99.90
67141;DHT22;54058;52.010;5.546;2024-02-26T10:31:43;6.00;99.90
67141;DHT22;54058;52.010;5.546;2024-02-26T10:34:08;6.00;99.90
67141;DHT22;54058;52.010;5.546;2024-02-26T10:36:34;6.00;99.90
67141;DHT22;54058;52.010;5.546;2024-02-26T10:39:03;6.00;99.90
67141;DHT22;54058;52.010;5.546;2024-02-26T10:41:30;6.00;99.90
67141;DHT22;54058;52.010;5.546;2024-02-26T10:43:55;6.00;99.90
67141;DHT22;54058;52.010;5.546;2024-02-26T10:46:21;6.10;99.90
67141;DHT22;54058;52.010;5.546;2024-02-26T10:48:50;6.10;99.90
67141;DHT22;54058;52.010;5.546;2024-02-26T10:51:17;6.00;99.90
67141;DHT22;54058;52.010;5.546;2024-02-26T10:53:43;6.10;99.90
67141;DHT22;54058;52.010;5.546;2024-02-26T10:56:11;6.10;99.90
67141;DHT22;54058;52.010;5.546;2024-02-26T10:58:36;6.10;99.90
67141;DHT22;54058;52.010;5.546;2024-02-26T11:01:02;6.10;99.90
67141;DHT22;54058;52.010;5.546;2024-02-26T11:03:28;6.10;99.90
67141;DHT22;54058;52.010;5.546;2024-02-26T11:05:57;6.10;99.90
67141;DHT22;54058;52.010;5.546;2024-02-26T11:08:23;6.10;99.90
67141;DHT22;54058;52.010;5.546;2024-02-26T11:10:50;6.10;99.90
67141;DHT22;54058;52.010;5.546;2024-02-26T11:13:18;6.10;99.90
67141;DHT22;54058;52.010;5.546;2024-02-26T11:15:44;6.10;99.90
67141;DHT22;54058;52.010;5.546;2024-02-26T11:18:12;6.10;99.90
67141;DHT22;54058;52.010;5.546;2024-02-26T11:20:38;6.20;99.90
67141;DHT22;54058;52.010;5.546;2024-02-26T11:23:05;6.20;99.90
67141;DHT22;54058;52.010;5.546;2024-02-26T11:25:32;6.20;99.90
67141;DHT22;54058;52.010;5.546;2024-02-26T11:28:00;6.20;99.90
67141;DHT22;54058;52.010;5.546;2024-02-26T11:30:28;6.20;99.90
67141;DHT22;54058;52.010;5.546;2024-02-26T11:32:54;6.20;99.90
67141;DHT22;54058;52.010;5.546;2024-02-26T11:35:20;6.20;99.90
67141;DHT22;54058;52.010;5.546;2024-02-26T11:37:55;6.20;99.90
67141;DHT22;54058;52.010;5.546;2024-02-26T11:40:25;6.20;99.90
67141;DHT22;54058;52.010;5.546;2024-02-26T11:42:53;6.10;99.90
67141;DHT22;54058;52.010;5.546;2024-02-26T11:45:47;6.20;99.90
67141;DHT22;54058;52.010;5.546;2024-02-26T11:48:14;6.10;99.90
67141;DHT22;54058;52.010;5.546;2024-02-26T11:50:40;6.10;99.90
67141;DHT22;54058;52.010;5.546;2024-02-26T11:58:35;6.10;99.90
67141;DHT22;54058;52.010;5.546;2024-02-26T12:01:02;6.10;99.90
67141;DHT22;54058;52.010;5.546;2024-02-26T12:03:28;6.10;99.90
67141;DHT22;54058;52.010;5.546;2024-02-26T12:05:53;6.20;99.90
67141;DHT22;54058;52.010;5.546;2024-02-26T12:08:20;6.20;99.90
67141;DHT22;54058;52.010;5.546;2024-02-26T12:10:46;6.20;99.90
67141;DHT22;54058;52.010;5.546;2024-02-26T12:13:14;6.20;99.90
67141;DHT22;54058;52.010;5.546;2024-02-26T12:15:44;6.20;99.90
67141;DHT22;54058;52.010;5.546;2024-02-26T12:18:17;6.20;99.90
67141;DHT22;54058;52.010;5.546;2024-02-26T12:20:43;6.20;99.90
67141;DHT22;54058;52.010;5.546;2024-02-26T12:23:17;6.20;99.90
67141;DHT22;54058;52.010;5.546;2024-02-26T12:25:43;6.20;99.90
67141;DHT22;54058;52.010;5.546;2024-02-26T12:28:09;6.20;99.90
67141;DHT22;54058;52.010;5.546;2024-02-26T12:30:35;6.20;99.90
67141;DHT22;54058;52.010;5.546;2024-02-26T12:33:00;6.20;99.90
67141;DHT22;54058;52.010;5.546;2024-02-26T12:35:26;6.30;99.90
67141;DHT22;54058;52.010;5.546;2024-02-26T12:37:55;6.20;99.90
67141;DHT22;54058;52.010;5.546;2024-02-26T12:40:21;6.30;99.90
67141;DHT22;54058;52.010;5.546;2024-02-26T12:42:47;6.30;99.90
67141;DHT22;54058;52.010;5.546;2024-02-26T12:45:13;6.30;99.90
67141;DHT22;54058;52.010;5.546;2024-02-26T12:47:40;6.30;99.90
67141;DHT22;54058;52.010;5.546;2024-02-26T12:50:06;6.30;99.90
67141;DHT22;54058;52.010;5.546;2024-02-26T12:52:32;6.40;99.90
67141;DHT22;54058;52.010;5.546;2024-02-26T12:54:58;6.40;99.90
67141;DHT22;54058;52.010;5.546;2024-02-26T12:57:24;6.40;99.90
67141;DHT22;54058;52.010;5.546;2024-02-26T12:59:50;6.40;99.90
67141;DHT22;54058;52.010;5.546;2024-02-26T13:02:15;6.40;99.90
67141;DHT22;54058;52.010;5.546;2024-02-26T13:04:41;6.40;99.90
67141;DHT22;54058;52.010;5.546;2024-02-26T13:07:06;6.50;99.90
67141;DHT22;54058;52.010;5.546;2024-02-26T13:09:32;6.50;99.90
67141;DHT22;54058;52.010;5.546;2024-02-26T13:11:59;6.50;99.90
67141;DHT22;54058;52.010;5.546;2024-02-26T13:14:26;6.50;99.90
67141;DHT22;54058;52.010;5.546;2024-02-26T13:16:55;6.50;99.90
67141;DHT22;54058;52.010;5.546;2024-02-26T13:19:21;6.60;99.90
67141;DHT22;54058;52.010;5.546;2024-02-26T13:21:47;6.60;99.90
67141;DHT22;54058;52.010;5.546;2024-02-26T13:24:13;6.60;99.90
67141;DHT22;54058;52.010;5.546;2024-02-26T13:26:39;6.60;99.90
67141;DHT22;54058;52.010;5.546;2024-02-26T13:29:05;6.70;99.90
67141;DHT22;54058;52.010;5.546;2024-02-26T13:31:30;6.60;99.90
67141;DHT22;54058;52.010;5.546;2024-02-26T13:33:56;6.70;99.90
67141;DHT22;54058;52.010;5.546;2024-02-26T13:36:22;6.70;99.90
67141;DHT22;54058;52.010;5.546;2024-02-26T13:38:54;6.70;99.90
67141;DHT22;54058;52.010;5.546;2024-02-26T13:41:23;6.70;99.90
67141;DHT22;54058;52.010;5.546;2024-02-26T13:43:50;6.70;99.90
67141;DHT22;54058;52.010;5.546;2024-02-26T13:46:15;6.70;99.90
67141;DHT22;54058;52.010;5.546;2024-02-26T13:48:41;6.70;99.90
67141;DHT22;54058;52.010;5.546;2024-02-26T13:51:07;6.70;99.90
67141;DHT22;54058;52.010;5.546;2024-02-26T13:53:32;6.80;99.90
67141;DHT22;54058;52.010;5.546;2024-02-26T13:55:58;6.80;99.90
67141;DHT22;54058;52.010;5.546;2024-02-26T13:58:26;6.80;99.90
67141;DHT22;54058;52.010;5.546;2024-02-26T14:00:55;6.80;99.90
67141;DHT22;54058;52.010;5.546;2024-02-26T14:03:21;6.80;99.90
67141;DHT22;54058;52.010;5.546;2024-02-26T14:05:47;6.80;99.90
67141;DHT22;54058;52.010;5.546;2024-02-26T14:08:12;6.90;99.90
67141;DHT22;54058;52.010;5.546;2024-02-26T14:10:38;6.90;99.90
67141;DHT22;54058;52.010;5.546;2024-02-26T14:13:04;6.90;99.90
67141;DHT22;54058;52.010;5.546;2024-02-26T14:15:30;6.90;99.90
67141;DHT22;54058;52.010;5.546;2024-02-26T14:17:55;7.00;99.90
67141;DHT22;54058;52.010;5.546;2024-02-26T14:20:21;7.00;99.90
67141;DHT22;54058;52.010;5.546;2024-02-26T14:22:48;7.10;99.90
67141;DHT22;54058;52.010;5.546;2024-02-26T14:25:13;7.10;99.90
67141;DHT22;54058;52.010;5.546;2024-02-26T14:27:39;7.10;99.90
67141;DHT22;54058;52.010;5.546;2024-02-26T14:30:04;7.10;99.90
67141;DHT22;54058;52.010;5.546;2024-02-26T14:32:30;7.10;99.90
67141;DHT22;54058;52.010;5.546;2024-02-26T14:35:00;7.10;99.90
67141;DHT22;54058;52.010;5.546;2024-02-26T14:37:25;7.20;99.90
67141;DHT22;54058;52.010;5.546;2024-02-26T14:39:51;7.20;99.90
67141;DHT22;54058;52.010;5.546;2024-02-26T14:42:18;7.20;99.90
67141;DHT22;54058;52.010;5.546;2024-02-26T14:44:44;7.20;99.90
67141;DHT22;54058;52.010;5.546;2024-02-26T14:47:09;7.20;99.90
67141;DHT22;54058;52.010;5.546;2024-02-26T14:49:35;7.20;99.90
67141;DHT22;54058;52.010;5.546;2024-02-26T14:52:00;7.20;99.90
67141;DHT22;54058;52.010;5.546;2024-02-26T14:54:28;7.20;99.90
67141;DHT22;54058;52.010;5.546;2024-02-26T14:56:58;7.20;99.90
67141;DHT22;54058;52.010;5.546;2024-02-26T14:59:23;7.20;99.90
67141;DHT22;54058;52.010;5.546;2024-02-26T15:01:49;7.20;99.90
67141;DHT22;54058;52.010;5.546;2024-02-26T15:04:14;7.20;99.90
67141;DHT22;54058;52.010;5.546;2024-02-26T15:06:40;7.20;99.90
67141;DHT22;54058;52.010;5.546;2024-02-26T15:09:06;7.20;99.90
67141;DHT22;54058;52.010;5.546;2024-02-26T15:11:31;7.20;99.90
67141;DHT22;54058;52.010;5.546;2024-02-26T15:13:57;7.20;99.90
67141;DHT22;54058;52.010;5.546;2024-02-26T15:16:22;7.20;99.90
67141;DHT22;54058;52.010;5.546;2024-02-26T15:18:48;7.20;99.90
67141;DHT22;54058;52.010;5.546;2024-02-26T15:21:13;7.20;99.90
67141;DHT22;54058;52.010;5.546;2024-02-26T15:23:42;7.20;99.90
67141;DHT22;54058;52.010;5.546;2024-02-26T15:26:08;7.20;99.90
67141;DHT22;54058;52.010;5.546;2024-02-26T15:28:34;7.20;99.90
67141;DHT22;54058;52.010;5.546;2024-02-26T15:30:59;7.20;99.90
67141;DHT22;54058;52.010;5.546;2024-02-26T15:33:25;7.20;99.90
67141;DHT22;54058;52.010;5.546;2024-02-26T15:35:51;7.20;99.90
67141;DHT22;54058;52.010;5.546;2024-02-26T15:38:16;7.20;99.90
67141;DHT22;54058;52.010;5.546;2024-02-26T15:40:42;7.20;99.90
67141;DHT22;54058;52.010;5.546;2024-02-26T15:43:07;7.20;99.90